createdAt,value
2023-08-12T00:01:11.962Z,99.90
2023-08-12T00:03:40.407Z,99.90
2023-08-12T00:06:09.382Z,99.90
2023-08-12T00:08:37.753Z,99.90
2023-08-12T00:11:07.489Z,99.90
2023-08-12T00:13:35.895Z,99.90
2023-08-12T00:16:06.640Z,99.90
2023-08-12T00:18:38.001Z,99.90
2023-08-12T00:21:10.938Z,99.90
2023-08-12T00:23:41.594Z,99.90
2023-08-12T00:26:11.514Z,99.90
2023-08-12T00:28:40.063Z,99.90
2023-08-12T00:31:08.546Z,99.90
2023-08-12T00:33:36.979Z,99.90
2023-08-12T00:36:05.538Z,99.90
2023-08-12T00:38:34.700Z,99.90
2023-08-12T00:41:04.012Z,99.90
2023-08-12T00:43:33.830Z,99.90
2023-08-12T00:46:02.320Z,99.90
2023-08-12T00:48:30.716Z,99.90
2023-08-12T00:50:59.140Z,99.90
2023-08-12T00:53:29.735Z,99.90
2023-08-12T00:55:58.166Z,99.90
2023-08-12T00:58:28.625Z,99.90
2023-08-12T01:00:58.470Z,99.90
2023-08-12T01:03:27.619Z,99.90
2023-08-12T01:05:57.190Z,99.90
2023-08-12T01:08:30.527Z,99.90
2023-08-12T01:11:03.462Z,99.90
2023-08-12T01:13:40.200Z,99.90
2023-08-12T01:16:10.375Z,99.90
2023-08-12T01:18:39.537Z,99.90
2023-08-12T01:21:10.137Z,99.90
2023-08-12T01:23:40.185Z,99.90
2023-08-12T01:26:08.630Z,99.90
2023-08-12T01:28:37.010Z,99.90
2023-08-12T01:31:11.464Z,99.90
2023-08-12T01:33:44.719Z,99.90
2023-08-12T01:36:16.957Z,99.90
2023-08-12T01:38:47.971Z,99.90
2023-08-12T01:41:17.795Z,99.90
2023-08-12T01:43:46.618Z,99.90
2023-08-12T01:46:15.062Z,99.90
2023-08-12T01:48:43.495Z,99.90
2023-08-12T01:51:14.485Z,99.90
2023-08-12T01:53:46.902Z,99.90
2023-08-12T01:56:15.369Z,99.90
2023-08-12T01:58:43.722Z,99.90
2023-08-12T02:01:12.251Z,99.90
2023-08-12T02:03:40.846Z,99.90
2023-08-12T02:06:09.425Z,99.90
2023-08-12T02:08:37.737Z,99.90
2023-08-12T02:11:07.544Z,99.90
2023-08-12T02:13:35.962Z,99.90
2023-08-12T02:16:04.624Z,99.90
2023-08-12T02:18:34.420Z,99.90
2023-08-12T02:21:02.881Z,99.90
2023-08-12T02:23:31.265Z,99.90
2023-08-12T02:25:59.700Z,99.90
2023-08-12T02:28:30.408Z,99.90
2023-08-12T02:30:58.775Z,99.90
2023-08-12T02:33:30.788Z,99.90
2023-08-12T02:35:59.150Z,99.90
2023-08-12T02:38:27.486Z,99.90
2023-08-12T02:40:56.745Z,99.90
2023-08-12T02:43:26.499Z,99.90
2023-08-12T02:45:56.489Z,99.90
2023-08-12T02:48:25.009Z,99.90
2023-08-12T02:50:53.480Z,99.90
2023-08-12T02:53:22.006Z,99.90
2023-08-12T02:55:52.235Z,99.90
2023-08-12T02:58:20.902Z,99.90
2023-08-12T03:00:49.366Z,99.90
2023-08-12T03:03:19.390Z,99.90
2023-08-12T03:05:48.794Z,99.90
2023-08-12T03:08:17.601Z,99.90
2023-08-12T03:10:47.043Z,99.90
2023-08-12T03:13:16.841Z,99.90
2023-08-12T03:15:45.238Z,99.90
2023-08-12T03:18:13.641Z,99.90
2023-08-12T03:20:43.420Z,99.90
2023-08-12T03:23:11.823Z,99.90
2023-08-12T03:25:41.380Z,99.90
2023-08-12T03:28:10.257Z,99.90
2023-08-12T03:30:39.948Z,99.90
2023-08-12T03:33:10.479Z,99.90
2023-08-12T03:35:39.799Z,99.90
2023-08-12T03:38:10.056Z,99.90
2023-08-12T03:40:40.344Z,99.90
2023-08-12T03:43:09.511Z,99.90
2023-08-12T03:45:42.148Z,99.90
2023-08-12T03:48:13.865Z,99.90
2023-08-12T03:50:43.982Z,99.90
2023-08-12T03:53:13.830Z,99.90
2023-08-12T03:55:44.908Z,99.90
2023-08-12T03:58:15.371Z,99.90
2023-08-12T04:00:44.786Z,99.90
2023-08-12T04:03:15.788Z,99.90
2023-08-12T04:05:50.721Z,99.90
2023-08-12T04:08:24.837Z,99.90
2023-08-12T04:10:53.903Z,99.90
2023-08-12T04:13:22.435Z,99.90
2023-08-12T04:15:54.550Z,99.90
2023-08-12T04:18:23.146Z,99.90
2023-08-12T04:20:52.770Z,99.90
2023-08-12T04:23:25.181Z,99.90
2023-08-12T04:25:54.997Z,99.90
2023-08-12T04:28:26.861Z,99.90
2023-08-12T04:30:57.913Z,99.90
2023-08-12T04:33:28.082Z,99.90
2023-08-12T04:35:56.495Z,99.90
2023-08-12T04:38:27.385Z,99.90
2023-08-12T04:41:00.342Z,99.90
2023-08-12T04:43:29.670Z,99.90
2023-08-12T04:45:59.369Z,99.90
2023-08-12T04:48:27.796Z,99.90
2023-08-12T04:51:01.228Z,99.90
2023-08-12T04:53:31.150Z,99.90
2023-08-12T04:55:59.936Z,99.90
2023-08-12T04:58:29.217Z,99.90
2023-08-12T05:00:58.277Z,99.90
2023-08-12T05:03:26.927Z,99.90
2023-08-12T05:05:55.759Z,99.90
2023-08-12T05:08:28.137Z,99.90
2023-08-12T05:10:58.937Z,99.90
2023-08-12T05:13:30.625Z,99.90
2023-08-12T05:15:59.475Z,99.90
2023-08-12T05:18:29.886Z,99.90
2023-08-12T05:21:00.030Z,99.90
2023-08-12T05:23:28.907Z,99.90
2023-08-12T05:25:58.749Z,99.90
2023-08-12T05:28:27.153Z,99.90
2023-08-12T05:30:57.712Z,99.90
2023-08-12T05:33:26.212Z,99.90
2023-08-12T05:35:54.777Z,99.90
2023-08-12T05:38:25.478Z,99.90
2023-08-12T05:40:56.180Z,99.90
2023-08-12T05:43:25.931Z,99.90
2023-08-12T05:45:54.357Z,99.90
2023-08-12T05:48:22.762Z,99.90
2023-08-12T05:50:51.145Z,99.90
2023-08-12T05:53:19.517Z,99.90
2023-08-12T05:55:50.001Z,99.90
2023-08-12T05:58:21.504Z,99.90
2023-08-12T06:00:51.573Z,99.90
2023-08-12T06:03:20.326Z,99.90
2023-08-12T06:05:49.277Z,99.90
2023-08-12T06:08:17.968Z,99.90
2023-08-12T06:10:46.544Z,99.90
2023-08-12T06:13:14.983Z,99.90
2023-08-12T06:15:43.375Z,99.90
2023-08-12T06:18:15.867Z,99.90
2023-08-12T06:20:44.466Z,99.90
2023-08-12T06:23:15.245Z,99.90
2023-08-12T06:25:44.110Z,99.90
2023-08-12T06:28:12.452Z,99.90
2023-08-12T06:30:40.989Z,99.90
2023-08-12T06:33:11.607Z,99.90
2023-08-12T06:35:41.401Z,99.90
2023-08-12T06:38:11.142Z,99.90
2023-08-12T06:40:42.113Z,99.90
2023-08-12T06:43:10.586Z,99.90
2023-08-12T06:45:39.016Z,99.90
2023-08-12T06:48:08.107Z,99.90
2023-08-12T06:50:36.736Z,99.90
2023-08-12T06:53:06.584Z,99.50
2023-08-12T06:55:37.106Z,99.60
2023-08-12T06:58:07.745Z,99.00
2023-08-12T07:00:36.267Z,99.60
2023-08-12T07:03:05.008Z,99.80
2023-08-12T07:05:33.440Z,99.90
2023-08-12T07:08:01.898Z,99.90
2023-08-12T07:10:31.656Z,99.90
2023-08-12T07:13:00.135Z,99.90
2023-08-12T07:15:28.455Z,99.90
2023-08-12T07:17:56.989Z,99.90
2023-08-12T07:20:25.514Z,99.90
2023-08-12T07:22:54.179Z,99.90
2023-08-12T07:25:22.593Z,99.90
2023-08-12T07:27:54.432Z,99.90
2023-08-12T07:30:23.076Z,99.50
2023-08-12T07:32:51.622Z,99.60
2023-08-12T07:35:20.541Z,99.80
2023-08-12T07:37:49.040Z,99.10
2023-08-12T07:40:17.475Z,99.00
2023-08-12T07:42:45.889Z,98.90
2023-08-12T07:45:15.897Z,98.60
2023-08-12T07:47:44.403Z,98.80
2023-08-12T07:50:13.057Z,98.50
2023-08-12T07:52:41.459Z,98.80
2023-08-12T07:55:09.926Z,98.90
2023-08-12T07:57:40.632Z,99.50
2023-08-12T08:00:11.001Z,99.40
2023-08-12T08:02:40.864Z,98.90
2023-08-12T08:05:09.750Z,99.10
2023-08-12T08:07:38.234Z,98.90
2023-08-12T08:10:07.732Z,98.70
2023-08-12T08:12:36.117Z,98.60
2023-08-12T08:15:05.186Z,98.40
2023-08-12T08:17:35.645Z,98.50
2023-08-12T08:20:09.226Z,98.00
2023-08-12T08:22:40.764Z,97.80
2023-08-12T08:25:09.880Z,97.80
2023-08-12T08:27:38.902Z,97.10
2023-08-12T08:30:08.666Z,97.00
2023-08-12T08:32:37.063Z,96.90
2023-08-12T08:35:07.678Z,96.70
2023-08-12T08:37:36.126Z,96.60
2023-08-12T08:40:04.889Z,96.30
2023-08-12T08:42:33.512Z,96.40
2023-08-12T08:45:03.518Z,97.00
2023-08-12T08:47:32.192Z,96.40
2023-08-12T08:50:01.193Z,95.60
2023-08-12T08:52:31.070Z,96.30
2023-08-12T08:55:03.246Z,95.80
2023-08-12T08:57:43.807Z,95.70
2023-08-12T09:00:21.747Z,95.40
2023-08-12T09:02:50.935Z,95.60
2023-08-12T09:05:22.883Z,95.70
2023-08-12T09:07:53.568Z,95.60
2023-08-12T09:10:23.280Z,96.00
2023-08-12T09:12:53.946Z,96.40
2023-08-12T09:15:22.474Z,95.30
2023-08-12T09:17:50.936Z,95.30
2023-08-12T09:20:19.338Z,95.40
2023-08-12T09:22:47.708Z,95.10
2023-08-12T09:25:17.512Z,94.90
2023-08-12T09:27:45.958Z,95.10
2023-08-12T09:30:14.743Z,94.60
2023-08-12T09:32:43.215Z,94.20
2023-08-12T09:35:18.941Z,94.60
2023-08-12T09:37:47.299Z,94.00
2023-08-12T09:40:17.718Z,93.70
2023-08-12T09:42:49.797Z,93.70
2023-08-12T09:45:21.704Z,93.10
2023-08-12T09:47:50.105Z,92.90
2023-08-12T09:50:18.722Z,92.10
2023-08-12T09:52:48.075Z,91.80
2023-08-12T09:55:18.873Z,91.50
2023-08-12T09:57:49.735Z,91.30
2023-08-12T10:00:21.175Z,91.50
2023-08-12T10:02:52.591Z,90.80
2023-08-12T10:05:24.058Z,90.70
2023-08-12T10:07:52.647Z,91.00
2023-08-12T10:10:23.588Z,91.30
2023-08-12T10:12:52.078Z,90.60
2023-08-12T10:15:23.508Z,90.80
2023-08-12T10:17:53.882Z,90.80
2023-08-12T10:20:26.549Z,90.90
2023-08-12T10:22:55.923Z,90.70
2023-08-12T10:25:27.213Z,90.20
2023-08-12T10:27:56.106Z,90.40
2023-08-12T10:30:29.909Z,91.10
2023-08-12T10:32:58.328Z,90.30
2023-08-12T10:35:42.283Z,91.40
2023-08-12T10:38:10.859Z,90.90
2023-08-12T10:40:42.770Z,91.50
2023-08-12T10:43:11.422Z,91.30
2023-08-12T10:45:48.808Z,91.00
2023-08-12T10:48:22.013Z,90.50
2023-08-12T10:50:56.051Z,90.80
2023-08-12T10:53:30.891Z,91.40
2023-08-12T10:56:05.169Z,90.70
2023-08-12T10:58:36.866Z,89.20
2023-08-12T11:01:05.422Z,89.80
2023-08-12T11:03:39.256Z,88.50
2023-08-12T11:06:08.763Z,90.00
2023-08-12T11:08:48.265Z,88.40
2023-08-12T11:11:24.269Z,87.10
2023-08-12T11:13:55.952Z,87.40
2023-08-12T11:16:34.067Z,88.70
2023-08-12T11:19:02.523Z,86.30
2023-08-12T11:21:33.173Z,86.80
2023-08-12T11:24:01.764Z,86.00
2023-08-12T11:26:32.502Z,85.90
2023-08-12T11:29:00.862Z,85.80
2023-08-12T11:31:29.613Z,85.90
2023-08-12T11:33:58.260Z,87.40
2023-08-12T11:36:26.625Z,86.80
2023-08-12T11:38:55.111Z,85.90
2023-08-12T11:41:24.907Z,88.10
2023-08-12T11:43:54.719Z,87.30
2023-08-12T11:46:23.057Z,87.50
2023-08-12T11:48:52.176Z,87.60
2023-08-12T11:51:20.757Z,89.00
2023-08-12T11:53:49.134Z,88.30
2023-08-12T11:56:17.519Z,88.50
2023-08-12T11:58:52.972Z,87.20
2023-08-12T12:01:24.760Z,89.90
2023-08-12T12:03:56.033Z,89.70
2023-08-12T12:06:32.066Z,89.00
2023-08-12T12:09:05.747Z,90.30
2023-08-12T12:11:34.346Z,89.90
2023-08-12T12:14:04.712Z,88.90
2023-08-12T12:16:44.865Z,89.90
2023-08-12T12:19:18.563Z,89.30
2023-08-12T12:21:48.091Z,89.40
2023-08-12T12:24:16.779Z,88.60
2023-08-12T12:26:45.371Z,88.50
2023-08-12T12:29:14.572Z,88.30
2023-08-12T12:31:44.657Z,87.60
2023-08-12T12:34:15.731Z,86.30
2023-08-12T12:36:44.213Z,86.10
2023-08-12T12:39:13.327Z,87.00
2023-08-12T12:41:41.745Z,87.40
2023-08-12T12:44:12.241Z,84.50
2023-08-12T12:46:40.635Z,84.20
2023-08-12T12:49:11.092Z,85.90
2023-08-12T12:51:39.483Z,85.50
2023-08-12T12:54:10.450Z,86.40
2023-08-12T12:56:40.993Z,87.40
2023-08-12T12:59:09.550Z,88.50
2023-08-12T13:01:37.938Z,88.20
2023-08-12T13:04:10.759Z,88.10
2023-08-12T13:06:39.277Z,86.90
2023-08-12T13:09:08.009Z,87.00
2023-08-12T13:11:36.838Z,86.10
2023-08-12T13:14:05.882Z,86.80
2023-08-12T13:16:37.393Z,87.90
2023-08-12T13:19:05.982Z,88.70
2023-08-12T13:21:35.938Z,89.30
2023-08-12T13:24:05.080Z,89.50
2023-08-12T13:26:35.970Z,90.20
2023-08-12T13:29:04.725Z,90.50
2023-08-12T13:31:35.523Z,90.10
2023-08-12T13:34:04.144Z,90.30
2023-08-12T13:36:32.815Z,90.60
2023-08-12T13:39:02.608Z,90.80
2023-08-12T13:41:31.036Z,90.90
2023-08-12T13:44:01.573Z,91.10
2023-08-12T13:46:29.999Z,90.90
2023-08-12T13:49:00.844Z,90.80
2023-08-12T13:51:29.759Z,90.80
2023-08-12T13:53:58.351Z,91.40
2023-08-12T13:56:29.205Z,92.10
2023-08-12T13:58:59.114Z,92.60
2023-08-12T14:01:27.551Z,92.80
2023-08-12T14:03:56.000Z,92.40
2023-08-12T14:06:24.535Z,92.20
2023-08-12T14:08:52.891Z,92.80
2023-08-12T14:11:21.886Z,93.00
2023-08-12T14:13:51.648Z,93.00
2023-08-12T14:16:20.037Z,92.90
2023-08-12T14:18:48.590Z,92.50
2023-08-12T14:21:17.779Z,92.40
2023-08-12T14:23:46.294Z,92.20
2023-08-12T14:26:14.754Z,92.60
2023-08-12T14:28:43.188Z,92.30
2023-08-12T14:31:13.271Z,92.10
2023-08-12T14:33:41.700Z,91.90
2023-08-12T14:36:12.650Z,91.60
2023-08-12T14:38:43.349Z,91.70
2023-08-12T14:41:11.742Z,91.70
2023-08-12T14:43:42.454Z,91.80
2023-08-12T14:46:12.437Z,92.10
2023-08-12T14:48:40.918Z,92.30
2023-08-12T14:51:09.291Z,92.60
2023-08-12T14:53:37.910Z,92.80
2023-08-12T14:56:06.570Z,93.00
2023-08-12T14:58:35.859Z,92.60
2023-08-12T15:01:05.144Z,92.70
2023-08-12T15:03:35.081Z,92.90
2023-08-12T15:06:07.044Z,93.10
2023-08-12T15:08:35.506Z,93.30
2023-08-12T15:11:03.917Z,93.40
2023-08-12T15:13:32.305Z,93.50
2023-08-12T15:16:00.919Z,93.80
2023-08-12T15:18:29.354Z,93.80
2023-08-12T15:20:59.544Z,93.80
2023-08-12T15:23:27.968Z,93.90
2023-08-12T15:25:56.662Z,94.20
2023-08-12T15:28:25.071Z,94.10
2023-08-12T15:30:53.503Z,94.00
2023-08-12T15:33:22.068Z,94.00
2023-08-12T15:35:51.081Z,94.30
2023-08-12T15:38:20.861Z,94.50
2023-08-12T15:40:49.213Z,94.60
2023-08-12T15:43:17.629Z,94.60
2023-08-12T15:45:46.486Z,94.70
2023-08-12T15:48:14.943Z,94.70
2023-08-12T15:50:45.049Z,94.70
2023-08-12T15:53:13.453Z,94.80
2023-08-12T15:55:43.200Z,95.00
2023-08-12T15:58:12.408Z,95.10
2023-08-12T16:00:44.168Z,95.60
2023-08-12T16:03:12.795Z,96.10
2023-08-12T16:05:41.267Z,96.80
2023-08-12T16:08:10.083Z,97.30
2023-08-12T16:10:38.832Z,97.80
2023-08-12T16:13:08.666Z,98.10
2023-08-12T16:15:37.086Z,98.80
2023-08-12T16:18:06.152Z,99.40
2023-08-12T16:20:34.560Z,99.60
2023-08-12T16:23:02.878Z,99.90
2023-08-12T16:25:33.323Z,99.90
2023-08-12T16:28:01.689Z,99.90
2023-08-12T16:30:31.819Z,99.90
2023-08-12T16:33:02.781Z,99.90
2023-08-12T16:35:31.229Z,99.90
2023-08-12T16:37:59.897Z,99.90
2023-08-12T16:40:29.595Z,99.90
2023-08-12T16:42:57.936Z,99.90
2023-08-12T16:45:26.380Z,99.90
2023-08-12T16:47:56.206Z,99.90
2023-08-12T16:50:24.649Z,99.90
2023-08-12T16:52:53.013Z,99.90
2023-08-12T16:55:21.430Z,99.90
2023-08-12T16:57:49.798Z,99.90
2023-08-12T17:00:19.996Z,99.90
2023-08-12T17:02:50.650Z,99.90
2023-08-12T17:05:20.522Z,99.90
2023-08-12T17:07:48.911Z,99.90
2023-08-12T17:10:17.401Z,99.90
2023-08-12T17:12:45.869Z,99.90
2023-08-12T17:15:14.269Z,99.90
2023-08-12T17:17:42.750Z,99.90
2023-08-12T17:20:11.521Z,99.90
2023-08-12T17:22:41.259Z,99.90
2023-08-12T17:25:10.135Z,99.90
2023-08-12T17:27:38.494Z,99.90
2023-08-12T17:30:08.237Z,99.90
2023-08-12T17:32:36.634Z,99.90
2023-08-12T17:35:05.703Z,99.90
2023-08-12T17:37:37.643Z,99.90
2023-08-12T17:40:11.648Z,99.90
2023-08-12T17:42:40.247Z,99.90
2023-08-12T17:45:09.289Z,99.90
2023-08-12T17:47:37.756Z,99.90
2023-08-12T17:50:08.987Z,99.90
2023-08-12T17:52:37.385Z,99.90
2023-08-12T17:55:07.937Z,99.90
2023-08-12T17:57:36.390Z,99.90
2023-08-12T18:00:05.818Z,99.90
2023-08-12T18:02:39.473Z,99.90
2023-08-12T18:05:08.772Z,99.90
2023-08-12T18:07:37.260Z,99.90
2023-08-12T18:10:10.255Z,99.90
2023-08-12T18:12:38.650Z,99.90
2023-08-12T18:15:09.896Z,99.90
2023-08-12T18:17:38.301Z,99.90
2023-08-12T18:20:08.064Z,99.90
2023-08-12T18:22:36.524Z,99.90
2023-08-12T18:25:05.482Z,99.90
2023-08-12T18:27:35.243Z,99.90
2023-08-12T18:30:04.411Z,99.90
2023-08-12T18:32:35.990Z,99.90
2023-08-12T18:35:08.781Z,99.90
2023-08-12T18:37:37.207Z,99.90
2023-08-12T18:40:08.714Z,99.90
2023-08-12T18:42:39.070Z,99.90
2023-08-12T18:45:08.029Z,99.90
2023-08-12T18:47:36.374Z,99.90
2023-08-12T18:50:07.466Z,99.90
2023-08-12T18:52:38.445Z,99.90
2023-08-12T18:55:08.782Z,99.90
2023-08-12T18:57:38.747Z,99.90
2023-08-12T19:00:10.189Z,99.90
2023-08-12T19:02:38.705Z,99.90
2023-08-12T19:05:08.023Z,99.90
2023-08-12T19:07:39.088Z,99.90
2023-08-12T19:10:08.624Z,99.90
2023-08-12T19:12:38.781Z,99.90
2023-08-12T19:15:09.302Z,99.90
2023-08-12T19:17:37.787Z,99.90
2023-08-12T19:20:09.320Z,99.90
2023-08-12T19:22:37.906Z,99.90
2023-08-12T19:25:09.344Z,99.90
2023-08-12T19:27:39.174Z,99.90
2023-08-12T19:30:10.612Z,99.90
2023-08-12T19:32:49.499Z,99.90
2023-08-12T19:35:17.924Z,99.90
2023-08-12T19:37:49.134Z,99.90
2023-08-12T19:40:18.383Z,99.90
2023-08-12T19:42:48.221Z,99.90
2023-08-12T19:45:19.977Z,99.90
2023-08-12T19:47:48.449Z,99.90
2023-08-12T19:50:16.943Z,99.90
2023-08-12T19:52:45.407Z,99.90
2023-08-12T19:55:13.875Z,99.90
2023-08-12T19:57:45.083Z,99.90
2023-08-12T20:00:16.518Z,99.90
2023-08-12T20:02:48.244Z,99.90
2023-08-12T20:05:17.522Z,99.90
2023-08-12T20:07:48.099Z,99.90
2023-08-12T20:10:17.321Z,99.90
2023-08-12T20:12:46.473Z,99.90
2023-08-12T20:15:16.446Z,99.90
2023-08-12T20:17:45.593Z,99.90
2023-08-12T20:20:18.053Z,99.90
2023-08-12T20:23:04.831Z,99.90
2023-08-12T20:25:36.777Z,99.90
2023-08-12T20:28:06.005Z,99.90
2023-08-12T20:30:37.353Z,99.90
2023-08-12T20:33:06.284Z,99.90
2023-08-12T20:35:37.436Z,99.90
2023-08-12T20:38:08.639Z,99.90
2023-08-12T20:40:37.041Z,99.90
2023-08-12T20:43:05.803Z,99.90
2023-08-12T20:45:35.628Z,99.90
2023-08-12T20:48:04.109Z,99.90
2023-08-12T20:50:32.815Z,99.90
2023-08-12T20:53:01.174Z,99.90
2023-08-12T20:55:30.384Z,99.90
2023-08-12T20:58:01.078Z,99.90
2023-08-12T21:00:30.295Z,99.90
2023-08-12T21:03:02.922Z,99.90
2023-08-12T21:05:33.921Z,99.90
2023-08-12T21:08:04.987Z,99.90
2023-08-12T21:10:33.438Z,99.90
2023-08-12T21:13:01.960Z,99.90
2023-08-12T21:15:30.445Z,99.90
2023-08-12T21:17:58.877Z,99.90
2023-08-12T21:20:28.745Z,99.90
2023-08-12T21:22:59.620Z,99.90
2023-08-12T21:25:28.017Z,99.90
2023-08-12T21:27:56.406Z,99.90
2023-08-12T21:30:27.522Z,99.90
2023-08-12T21:32:55.922Z,99.90
2023-08-12T21:35:24.327Z,99.90
2023-08-12T21:37:54.111Z,99.90
2023-08-12T21:40:22.534Z,99.90
2023-08-12T21:42:50.866Z,99.90
2023-08-12T21:45:19.401Z,99.90
2023-08-12T21:47:47.785Z,99.90
2023-08-12T21:50:16.356Z,99.90
2023-08-12T21:52:46.869Z,99.90
2023-08-12T21:55:16.899Z,99.90
2023-08-12T21:57:45.632Z,99.90
2023-08-12T22:00:15.241Z,99.90
2023-08-12T22:02:44.738Z,99.90
2023-08-12T22:05:16.734Z,99.90
2023-08-12T22:07:45.215Z,99.90
2023-08-12T22:10:13.620Z,99.90
2023-08-12T22:12:43.383Z,99.90
2023-08-12T22:15:12.497Z,99.90
2023-08-12T22:17:41.237Z,99.90
2023-08-12T22:20:11.773Z,99.90
2023-08-12T22:22:40.285Z,99.90
2023-08-12T22:25:09.699Z,99.90
2023-08-12T22:27:38.213Z,99.90
2023-08-12T22:30:09.417Z,99.90
2023-08-12T22:32:37.877Z,99.90
2023-08-12T22:35:09.120Z,99.90
2023-08-12T22:37:37.923Z,99.90
2023-08-12T22:40:07.742Z,99.90
2023-08-12T22:42:36.128Z,99.90
2023-08-12T22:45:04.960Z,99.90
2023-08-12T22:47:36.983Z,99.90
2023-08-12T22:50:07.438Z,99.90
2023-08-12T22:52:35.976Z,99.90
2023-08-12T22:55:04.664Z,99.90
2023-08-12T22:57:33.050Z,99.90
2023-08-12T23:00:01.434Z,99.90
2023-08-12T23:02:29.916Z,99.90
2023-08-12T23:05:00.568Z,99.90
2023-08-12T23:07:28.924Z,99.90
2023-08-12T23:09:59.817Z,99.90
2023-08-12T23:12:31.973Z,99.90
2023-08-12T23:15:00.420Z,99.90
2023-08-12T23:17:28.806Z,99.90
2023-08-12T23:19:57.158Z,99.90
2023-08-12T23:22:27.153Z,99.90
2023-08-12T23:24:57.653Z,99.90
2023-08-12T23:27:28.348Z,99.90
2023-08-12T23:29:56.802Z,99.90
2023-08-12T23:32:25.226Z,99.90
2023-08-12T23:34:53.603Z,99.90
2023-08-12T23:37:21.947Z,99.90
2023-08-12T23:39:51.819Z,99.90
2023-08-12T23:42:20.348Z,99.90
2023-08-12T23:44:51.370Z,99.90
2023-08-12T23:47:19.756Z,99.90
2023-08-12T23:49:50.108Z,99.90
2023-08-12T23:52:21.102Z,99.90
2023-08-12T23:54:49.513Z,99.90
2023-08-12T23:57:19.286Z,99.90
2023-08-12T23:59:47.858Z,99.90
